Time;durP1;ratioP1;P1;durP2;ratioP2;P2;SDS_P1;SDS_P2;PMS_P1;PMS_P2;Temp;Humidity;BMP_temperature;BMP_pressure;BME280_temperature;BME280_humidity;BME280_pressure;Samples;Min_cycle;Max_cycle;Signal;HPM_P1;HPM_P2
2022/04/09 00:00:16;;;;;;;0.10;0.10;;;;;;;;;;5009256;28;20647;-66
2022/04/09 00:02:43;;;;;;;0.10;0.10;;;;;;;;;;5011857;28;20626;-67
2022/04/09 00:05:12;;;;;;;0.13;0.13;;;;;;;;;;5012167;28;20675;-67
2022/04/09 00:07:40;;;;;;;0.10;0.10;;;;;;;;;;5011799;28;20637;-66
2022/04/09 00:10:09;;;;;;;0.10;0.10;;;;;;;;;;5011533;28;20642;-67
2022/04/09 00:12:36;;;;;;;0.13;0.13;;;;;;;;;;5012203;28;20610;-67
2022/04/09 00:15:05;;;;;;;0.10;0.10;;;;;;;;;;5007344;28;20754;-67
2022/04/09 00:17:37;;;;;;;0.10;0.10;;;;;;;;;;5007822;28;20753;-68
2022/04/09 00:20:05;;;;;;;0.10;0.10;;;;;;;;;;5011802;28;20664;-68
2022/04/09 00:22:33;;;;;;;0.10;0.10;;;;;;;;;;5011880;28;20618;-67
2022/04/09 00:25:00;;;;;;;0.10;0.10;;;;;;;;;;5012023;28;20789;-66
2022/04/09 00:27:27;;;;;;;0.10;0.10;;;;;;;;;;5008100;28;20634;-67
2022/04/09 00:29:54;;;;;;;0.10;0.10;;;;;;;;;;5013761;28;20608;-68
2022/04/09 00:32:23;;;;;;;0.10;0.10;;;;;;;;;;5007853;28;20685;-66
2022/04/09 00:34:50;;;;;;;0.10;0.10;;;;;;;;;;5009870;28;20650;-67
2022/04/09 00:37:18;;;;;;;0.10;0.10;;;;;;;;;;5000227;28;20659;-67
2022/04/09 00:39:45;;;;;;;0.10;0.10;;;;;;;;;;5011537;28;20619;-66
2022/04/09 00:42:18;;;;;;;0.20;0.20;;;;;;;;;;5007977;28;20624;-65
2022/04/09 00:44:45;;;;;;;0.10;0.10;;;;;;;;;;5018538;28;20634;-67
2022/04/09 00:47:13;;;;;;;0.10;0.10;;;;;;;;;;5005007;28;21286;-67
2022/04/09 00:49:41;;;;;;;0.20;0.20;;;;;;;;;;5014543;28;20618;-67
2022/04/09 00:52:09;;;;;;;0.10;0.10;;;;;;;;;;5005940;28;20632;-67
2022/04/09 00:54:39;;;;;;;0.10;0.10;;;;;;;;;;5007020;28;20667;-68
2022/04/09 00:57:07;;;;;;;0.10;0.10;;;;;;;;;;5012460;28;20635;-67
2022/04/09 00:59:36;;;;;;;0.13;0.13;;;;;;;;;;5016614;28;20636;-66
2022/04/09 01:02:04;;;;;;;0.10;0.10;;;;;;;;;;5011408;28;21180;-66
2022/04/09 01:04:32;;;;;;;0.10;0.10;;;;;;;;;;5007704;28;20655;-67
2022/04/09 01:07:01;;;;;;;0.10;0.10;;;;;;;;;;5006788;28;20715;-67
2022/04/09 01:09:29;;;;;;;0.10;0.10;;;;;;;;;;5011641;28;20722;-67
2022/04/09 01:11:56;;;;;;;0.20;0.20;;;;;;;;;;5006816;28;20670;-67
2022/04/09 01:14:24;;;;;;;0.20;0.20;;;;;;;;;;5012033;28;20666;-67
2022/04/09 01:16:51;;;;;;;0.20;0.20;;;;;;;;;;5012692;28;20605;-67
2022/04/09 01:19:18;;;;;;;0.10;0.10;;;;;;;;;;5013046;28;20655;-67
2022/04/09 01:21:48;;;;;;;0.10;0.10;;;;;;;;;;5007820;28;20627;-66
2022/04/09 01:24:17;;;;;;;0.20;0.20;;;;;;;;;;5007016;28;20708;-66
2022/04/09 01:26:51;;;;;;;0.10;0.10;;;;;;;;;;5017402;28;20625;-67
2022/04/09 01:29:25;;;;;;;0.10;0.10;;;;;;;;;;5007091;28;20615;-67
2022/04/09 01:31:52;;;;;;;0.10;0.10;;;;;;;;;;5010686;28;20681;-67
2022/04/09 01:34:20;;;;;;;0.10;0.10;;;;;;;;;;5006823;28;20686;-67
2022/04/09 01:36:47;;;;;;;0.10;0.10;;;;;;;;;;5008017;28;20642;-67
2022/04/09 01:39:17;;;;;;;0.10;0.10;;;;;;;;;;5006893;28;20707;-68
2022/04/09 01:41:46;;;;;;;0.17;0.17;;;;;;;;;;5008049;28;20635;-67
2022/04/09 01:44:14;;;;;;;0.10;0.10;;;;;;;;;;5011328;28;20643;-67
2022/04/09 01:46:44;;;;;;;0.10;0.10;;;;;;;;;;5007242;28;20625;-68
2022/04/09 01:49:13;;;;;;;0.10;0.10;;;;;;;;;;5005350;28;20626;-68
2022/04/09 01:51:41;;;;;;;0.10;0.10;;;;;;;;;;5019818;28;20631;-69
2022/04/09 01:54:08;;;;;;;0.10;0.10;;;;;;;;;;5012045;28;20659;-66
2022/04/09 01:56:36;;;;;;;0.10;0.10;;;;;;;;;;5018159;28;20722;-67
2022/04/09 01:59:05;;;;;;;0.10;0.10;;;;;;;;;;5004250;28;20667;-69
2022/04/09 02:01:33;;;;;;;0.20;0.20;;;;;;;;;;5008986;28;20630;-68
2022/04/09 02:04:00;;;;;;;0.10;0.10;;;;;;;;;;5007740;28;20663;-67
2022/04/09 02:06:29;;;;;;;0.20;0.20;;;;;;;;;;5006526;28;20718;-67
2022/04/09 02:08:56;;;;;;;0.20;0.20;;;;;;;;;;5013415;28;20635;-67
2022/04/09 02:11:24;;;;;;;0.10;0.10;;;;;;;;;;5005561;28;21013;-68
2022/04/09 02:13:52;;;;;;;0.10;0.10;;;;;;;;;;5013460;28;20614;-68
2022/04/09 02:16:21;;;;;;;0.10;0.10;;;;;;;;;;5004474;28;20722;-67
2022/04/09 02:18:48;;;;;;;0.10;0.10;;;;;;;;;;5010746;28;20732;-68
2022/04/09 02:21:15;;;;;;;0.17;0.17;;;;;;;;;;5002272;28;20726;-67
2022/04/09 02:23:42;;;;;;;0.10;0.10;;;;;;;;;;5002563;28;20624;-67
2022/04/09 02:26:09;;;;;;;0.20;0.20;;;5.50;99.90;;;;;;5005805;28;20659;-67
2022/04/09 02:28:36;;;;;;;0.10;0.10;;;4.90;99.90;;;;;;5009953;28;20668;-68
2022/04/09 02:31:03;;;;;;;0.10;0.10;;;4.80;99.90;;;;;;5004934;28;20627;-68
2022/04/09 02:33:38;;;;;;;0.10;0.10;;;4.80;99.90;;;;;;5000953;28;20723;-67
2022/04/09 02:36:09;;;;;;;0.10;0.10;;;4.80;99.90;;;;;;5001015;28;20638;-68
2022/04/09 02:38:37;;;;;;;0.10;0.10;;;4.80;99.90;;;;;;5001649;28;20663;-67
2022/04/09 02:41:04;;;;;;;0.10;0.10;;;4.80;99.90;;;;;;5012237;28;20627;-68
2022/04/09 02:43:32;;;;;;;0.10;0.10;;;4.80;99.90;;;;;;5010618;28;20766;-68
2022/04/09 02:45:59;;;;;;;0.20;0.20;;;4.80;99.90;;;;;;5011134;28;20619;-68
2022/04/09 02:48:26;;;;;;;0.20;0.20;;;4.80;99.90;;;;;;5012914;28;20624;-67
2022/04/09 02:50:55;;;;;;;0.10;0.10;;;4.70;99.90;;;;;;5027096;28;20628;-67
2022/04/09 02:53:24;;;;;;;0.20;0.20;;;4.70;99.90;;;;;;5009093;28;20631;-66
2022/04/09 02:55:54;;;;;;;0.20;0.20;;;4.70;99.90;;;;;;5004713;28;20698;-66
2022/04/09 02:58:21;;;;;;;0.20;0.20;;;4.70;99.90;;;;;;5003346;28;20661;-67
2022/04/09 03:00:50;;;;;;;0.20;0.20;;;4.70;99.90;;;;;;5005860;28;20636;-67
2022/04/09 03:03:20;;;;;;;0.20;0.20;;;4.70;99.90;;;;;;5009559;28;20619;-66
2022/04/09 03:05:49;;;;;;;0.10;0.10;;;4.70;99.90;;;;;;5004585;28;20686;-67
2022/04/09 03:08:17;;;;;;;0.10;0.10;;;4.70;99.90;;;;;;5007204;28;20716;-68
2022/04/09 03:10:44;;;;;;;0.13;0.13;;;4.70;99.90;;;;;;5008262;28;20654;-67
2022/04/09 03:13:11;;;;;;;0.20;0.20;;;4.70;99.90;;;;;;5001014;28;20626;-66
2022/04/09 03:15:38;;;;;;;0.20;0.20;;;4.70;99.90;;;;;;5008624;28;20658;-66
2022/04/09 03:18:09;;;;;;;0.20;0.20;;;4.70;99.90;;;;;;5011854;28;20676;-67
2022/04/09 03:20:36;;;;;;;0.10;0.10;;;4.60;99.90;;;;;;5002576;28;20609;-67
2022/04/09 03:23:03;;;;;;;0.20;0.20;;;4.60;99.90;;;;;;5001869;28;20631;-67
2022/04/09 03:25:42;;;;;;;0.10;0.10;;;4.60;99.90;;;;;;5007302;28;20656;-66
2022/04/09 03:28:10;;;;;;;0.20;0.20;;;4.60;99.90;;;;;;5005463;28;21057;-68
2022/04/09 03:30:39;;;;;;;0.10;0.10;;;;;;;;;;5003606;28;20626;-68
2022/04/09 03:33:08;;;;;;;0.20;0.20;;;4.60;99.90;;;;;;4994225;28;21262;-67
2022/04/09 03:35:37;;;;;;;0.20;0.20;;;4.60;99.90;;;;;;5007411;28;20667;-67
2022/04/09 03:38:05;;;;;;;0.10;0.10;;;4.60;99.90;;;;;;5013477;28;20636;-67
2022/04/09 03:40:43;;;;;;;0.10;0.10;;;4.50;99.90;;;;;;5021642;28;20708;-68
2022/04/09 03:43:10;;;;;;;0.20;0.20;;;4.50;99.90;;;;;;5010695;28;20627;-67
2022/04/09 03:45:38;;;;;;;0.10;0.10;;;4.50;99.90;;;;;;4999951;28;20676;-67
2022/04/09 03:48:07;;;;;;;0.10;0.10;;;4.50;99.90;;;;;;5009408;28;20630;-67
2022/04/09 03:50:37;;;;;;;0.10;0.10;;;4.50;99.90;;;;;;5005375;28;20627;-67
2022/04/09 03:53:05;;;;;;;0.10;0.10;;;4.50;99.90;;;;;;5003904;28;20634;-67
2022/04/09 03:55:32;;;;;;;0.10;0.10;;;4.50;99.90;;;;;;5013642;28;20651;-67
2022/04/09 03:58:03;;;;;;;0.20;0.20;;;4.50;99.90;;;;;;5003343;28;21199;-66
2022/04/09 04:00:30;;;;;;;0.20;0.20;;;4.40;99.90;;;;;;5021653;28;20619;-67
2022/04/09 04:02:58;;;;;;;0.10;0.10;;;4.40;99.90;;;;;;5011626;28;20626;-67
2022/04/09 04:05:26;;;;;;;0.10;0.10;;;4.40;99.90;;;;;;5007271;28;20755;-67
2022/04/09 04:07:53;;;;;;;0.20;0.20;;;4.40;99.90;;;;;;5007528;28;20619;-67
2022/04/09 04:10:22;;;;;;;0.10;0.10;;;;;;;;;;5007929;28;20730;-67
2022/04/09 04:12:57;;;;;;;0.20;0.20;;;;;;;;;;5011010;28;21183;-67
2022/04/09 04:15:32;;;;;;;0.20;0.20;;;;;;;;;;5010864;28;20728;-66
2022/04/09 04:18:00;;;;;;;0.20;0.20;;;;;;;;;;5008424;28;20663;-68
2022/04/09 04:20:32;;;;;;;0.10;0.10;;;;;;;;;;5022219;28;20724;-68
2022/04/09 04:23:00;;;;;;;0.10;0.10;;;;;;;;;;5015452;28;20627;-67
2022/04/09 04:25:28;;;;;;;0.13;0.13;;;;;;;;;;5012768;28;20653;-67
2022/04/09 04:27:56;;;;;;;0.10;0.10;;;;;;;;;;5009987;28;20625;-67
2022/04/09 04:30:25;;;;;;;0.10;0.10;;;4.30;99.90;;;;;;5004992;28;20619;-67
2022/04/09 04:32:55;;;;;;;0.20;0.20;;;;;;;;;;5024223;28;20620;-67
2022/04/09 04:35:32;;;;;;;0.20;0.20;;;;;;;;;;5012849;28;20663;-67
2022/04/09 04:38:00;;;;;;;0.20;0.20;;;4.30;99.90;;;;;;5023493;28;20638;-67
2022/04/09 04:40:29;;;;;;;0.10;0.10;;;4.30;99.90;;;;;;5027928;28;20655;-67
2022/04/09 04:43:01;;;;;;;0.20;0.20;;;4.30;99.90;;;;;;5011978;28;20634;-67
2022/04/09 04:45:30;;;;;;;0.20;0.20;;;4.30;99.90;;;;;;5028070;28;20686;-68
2022/04/09 04:48:00;;;;;;;0.20;0.20;;;4.30;99.90;;;;;;5015372;28;20618;-67
2022/04/09 04:50:30;;;;;;;0.20;0.20;;;4.30;99.90;;;;;;5011504;28;20651;-67
2022/04/09 04:53:00;;;;;;;0.17;0.17;;;4.30;99.90;;;;;;5014366;28;20626;-66
2022/04/09 04:55:31;;;;;;;0.10;0.10;;;4.30;99.90;;;;;;5006745;28;20687;-67
2022/04/09 04:57:58;;;;;;;0.17;0.17;;;4.30;99.90;;;;;;5013307;28;20623;-67
2022/04/09 05:00:33;;;;;;;0.10;0.10;;;4.30;99.90;;;;;;5008082;28;20741;-68
2022/04/09 05:03:06;;;;;;;0.20;0.20;;;4.30;99.90;;;;;;5016772;28;20677;-67
2022/04/09 05:05:42;;;;;;;0.20;0.20;;;4.30;99.90;;;;;;5003655;28;20647;-68
2022/04/09 05:08:10;;;;;;;0.13;0.13;;;4.40;99.90;;;;;;5011362;28;20642;-67
2022/04/09 05:10:37;;;;;;;0.20;0.20;;;4.40;99.90;;;;;;5009589;28;20603;-67
2022/04/09 05:13:05;;;;;;;0.20;0.20;;;4.50;99.90;;;;;;5012941;28;20622;-67
2022/04/09 05:15:35;;;;;;;0.20;0.20;;;4.60;99.90;;;;;;5012025;28;20694;-67
2022/04/09 05:18:02;;;;;;;0.27;0.27;;;4.70;99.90;;;;;;5005783;28;20643;-68
2022/04/09 05:20:32;;;;;;;0.20;0.20;;;4.80;99.90;;;;;;5010830;28;20691;-68
2022/04/09 05:23:03;;;;;;;0.10;0.10;;;4.90;99.90;;;;;;5003152;28;20616;-67
2022/04/09 05:25:31;;;;;;;0.20;0.20;;;5.10;99.90;;;;;;5005413;28;20756;-68
2022/04/09 05:28:04;;;;;;;0.20;0.20;;;5.20;99.90;;;;;;5005714;28;20623;-68
2022/04/09 05:30:36;;;;;;;0.20;0.20;;;5.20;99.90;;;;;;5027479;28;20653;-67
2022/04/09 05:33:05;;;;;;;0.20;0.20;;;5.20;99.90;;;;;;5007798;28;20636;-69
2022/04/09 05:35:33;;;;;;;0.17;0.17;;;5.10;99.90;;;;;;5019810;28;21328;-69
2022/04/09 05:38:00;;;;;;;0.20;0.20;;;5.10;99.90;;;;;;5022352;28;20627;-69
2022/04/09 05:40:34;;;;;;;0.10;0.10;;;5.10;99.90;;;;;;5011918;28;20650;-69
2022/04/09 05:43:09;;;;;;;0.10;0.10;;;5.00;99.90;;;;;;5007475;28;20633;-69
2022/04/09 05:45:36;;;;;;;0.20;0.20;;;5.10;99.90;;;;;;5005278;28;20657;-69
2022/04/09 05:48:04;;;;;;;0.10;0.10;;;5.20;99.90;;;;;;5002769;28;20659;-69
2022/04/09 05:50:43;;;;;;;0.20;0.20;;;5.30;99.90;;;;;;5014132;28;21178;-70
2022/04/09 05:53:12;;;;;;;0.20;0.20;;;5.30;99.90;;;;;;5019489;28;20651;-67
2022/04/09 05:55:39;;;;;;;0.10;0.10;;;5.30;99.90;;;;;;5012141;28;20713;-67
2022/04/09 05:58:06;;;;;;;0.10;0.10;;;5.60;99.90;;;;;;5012510;28;20626;-68
2022/04/09 06:00:37;;;;;;;0.10;0.10;;;5.80;99.90;;;;;;4996110;28;20684;-68
2022/04/09 06:03:23;;;;;;;0.20;0.20;;;5.90;99.90;;;;;;5003372;28;20678;-67
2022/04/09 06:05:52;;;;;;;0.17;0.17;;;6.00;99.90;;;;;;5017637;28;20656;-68
2022/04/09 06:08:40;;;;;;;0.10;0.10;;;6.00;99.90;;;;;;5004063;28;20674;-67
2022/04/09 06:11:17;;;;;;;0.20;0.20;;;6.10;99.90;;;;;;5005564;28;20619;-66
2022/04/09 06:13:46;;;;;;;0.20;0.20;;;6.30;99.90;;;;;;5007237;28;20630;-67
2022/04/09 06:16:13;;;;;;;0.10;0.10;;;6.50;99.90;;;;;;5002260;28;20637;-67
2022/04/09 06:18:46;;;;;;;0.20;0.20;;;6.70;99.90;;;;;;5003123;28;20626;-67
2022/04/09 06:21:14;;;;;;;0.10;0.10;;;6.70;99.90;;;;;;5001425;28;20643;-68
2022/04/09 06:23:41;;;;;;;0.13;0.13;;;6.80;99.90;;;;;;5002873;28;20707;-67
2022/04/09 06:26:09;;;;;;;0.10;0.10;;;7.00;99.90;;;;;;5019028;28;20643;-67
2022/04/09 06:28:37;;;;;;;0.10;0.10;;;7.00;99.90;;;;;;5008410;28;20625;-68
2022/04/09 06:31:04;;;;;;;0.10;0.10;;;6.80;99.90;;;;;;5011547;28;20624;-67
2022/04/09 06:33:35;;;;;;;0.10;0.10;;;6.80;99.90;;;;;;5009292;28;20634;-67
2022/04/09 06:36:05;;;;;;;0.10;0.10;;;6.90;99.90;;;;;;5006619;28;20643;-67
2022/04/09 06:38:35;;;;;;;0.10;0.10;;;6.90;99.90;;;;;;5008664;28;20646;-67
2022/04/09 06:41:05;;;;;;;0.10;0.10;;;6.90;99.90;;;;;;5007157;28;20659;-67
2022/04/09 06:43:37;;;;;;;0.10;0.10;;;6.90;99.90;;;;;;5008895;28;20607;-67
2022/04/09 06:46:17;;;;;;;0.10;0.10;;;6.90;99.90;;;;;;5006364;28;20630;-68
2022/04/09 06:49:03;;;;;;;0.10;0.10;;;7.00;99.90;;;;;;5010586;28;20631;-68
2022/04/09 06:51:49;;;;;;;0.10;0.10;;;7.20;99.90;;;;;;5007831;28;20684;-67
2022/04/09 06:54:36;;;;;;;0.10;0.10;;;7.30;99.90;;;;;;5007074;28;20646;-68
2022/04/09 06:57:03;;;;;;;0.20;0.20;;;7.30;99.90;;;;;;5014898;28;21208;-68
2022/04/09 06:59:36;;;;;;;0.10;0.10;;;7.20;99.90;;;;;;5007268;28;20654;-67
2022/04/09 07:02:03;;;;;;;0.10;0.10;;;7.10;99.90;;;;;;4999616;28;20659;-69
2022/04/09 07:04:30;;;;;;;0.10;0.10;;;6.90;99.90;;;;;;4990688;28;20674;-68
2022/04/09 07:06:57;;;;;;;0.20;0.20;;;6.80;99.90;;;;;;5004652;28;20707;-68
2022/04/09 07:09:24;;;;;;;0.20;0.20;;;6.70;99.90;;;;;;5008965;28;20639;-68
2022/04/09 07:11:52;;;;;;;0.10;0.10;;;6.80;99.90;;;;;;4998171;28;20624;-68
2022/04/09 07:14:19;;;;;;;0.10;0.10;;;7.10;99.90;;;;;;5020770;28;20648;-68
2022/04/09 07:16:47;;;;;;;0.10;0.10;;;7.40;99.90;;;;;;5003828;28;20628;-67
2022/04/09 07:19:14;;;;;;;0.20;0.20;;;7.60;99.90;;;;;;5008979;28;20608;-69
2022/04/09 07:21:41;;;;;;;0.10;0.10;;;7.70;99.90;;;;;;4998903;28;20636;-67
2022/04/09 07:24:08;;;;;;;0.20;0.20;;;7.90;99.90;;;;;;4999347;28;20695;-67
2022/04/09 07:26:36;;;;;;;0.10;0.10;;;;;;;;;;5007751;28;20716;-67
2022/04/09 07:29:04;;;;;;;0.10;0.10;;;8.20;99.90;;;;;;5008703;28;20646;-69
2022/04/09 07:31:31;;;;;;;0.10;0.10;;;8.80;99.90;;;;;;5006841;28;20665;-68
2022/04/09 07:33:58;;;;;;;0.10;0.10;;;9.00;99.90;;;;;;5006735;28;20667;-67
2022/04/09 07:36:25;;;;;;;0.10;0.10;;;;;;;;;;5008356;28;20631;-68
2022/04/09 07:38:53;;;;;;;0.10;0.10;;;;;;;;;;5005917;28;20619;-68
2022/04/09 07:41:20;;;;;;;0.10;0.10;;;;;;;;;;5009693;28;21116;-68
2022/04/09 07:43:47;;;;;;;0.10;0.10;;;;;;;;;;5015310;28;20583;-68
2022/04/09 07:46:16;;;;;;;0.10;0.10;;;;;;;;;;5002638;28;20723;-68
2022/04/09 07:48:44;;;;;;;0.10;0.10;;;;;;;;;;5011024;28;21227;-68
2022/04/09 07:51:11;;;;;;;0.10;0.10;;;;;;;;;;5008423;28;20655;-67
2022/04/09 07:53:38;;;;;;;0.10;0.10;;;;;;;;;;5005390;28;20743;-68
2022/04/09 07:56:06;;;;;;;0.10;0.10;;;;;;;;;;5010605;28;20607;-68
2022/04/09 07:58:33;;;;;;;0.10;0.10;;;;;;;;;;5011407;28;20607;-69
2022/04/09 08:01:00;;;;;;;0.10;0.10;;;;;;;;;;5009803;28;20702;-68
2022/04/09 08:03:29;;;;;;;0.10;0.10;;;;;;;;;;5012080;28;20603;-67
2022/04/09 08:05:56;;;;;;;0.10;0.10;;;;;;;;;;5009140;28;20656;-68
2022/04/09 08:08:23;;;;;;;0.10;0.10;;;;;;;;;;5014432;28;20634;-67
2022/04/09 08:10:51;;;;;;;0.10;0.10;;;;;;;;;;5011276;28;20623;-68
2022/04/09 08:13:18;;;;;;;0.10;0.10;;;;;;;;;;5006434;28;20673;-69
2022/04/09 08:15:46;;;;;;;0.10;0.10;;;;;;;;;;4999815;28;20663;-69
2022/04/09 08:18:13;;;;;;;0.10;0.10;;;;;;;;;;5008054;28;20612;-68
2022/04/09 08:20:42;;;;;;;0.10;0.10;;;;;;;;;;5006179;28;20686;-67
2022/04/09 08:23:09;;;;;;;0.00;0.00;;;;;;;;;;5006908;28;20721;-68
2022/04/09 08:25:36;;;;;;;0.10;0.10;;;;;;;;;;5009975;28;20638;-68
2022/04/09 08:28:03;;;;;;;0.00;0.00;;;;;;;;;;5015336;28;20675;-68
2022/04/09 08:30:31;;;;;;;0.10;0.10;;;;;;;;;;5026960;28;20910;-69
2022/04/09 08:33:01;;;;;;;0.10;0.10;;;;;;;;;;5008010;28;20612;-69
2022/04/09 08:35:29;;;;;;;0.10;0.10;;;;;;;;;;5009588;28;20666;-68
2022/04/09 08:37:57;;;;;;;0.10;0.10;;;;;;;;;;5006171;28;20628;-69
2022/04/09 08:40:26;;;;;;;0.10;0.10;;;;;;;;;;5004458;28;20217;-67
2022/04/09 08:42:54;;;;;;;0.10;0.10;;;;;;;;;;5007824;28;20208;-69
2022/04/09 08:45:22;;;;;;;0.10;0.10;;;;;;;;;;5008900;28;20217;-68
2022/04/09 08:47:50;;;;;;;0.10;0.10;;;;;;;;;;5008006;28;20628;-69
2022/04/09 08:50:19;;;;;;;0.10;0.10;;;;;;;;;;5005441;28;20196;-68
2022/04/09 08:52:47;;;;;;;0.10;0.10;;;;;;;;;;5020938;28;20220;-69
2022/04/09 08:55:16;;;;;;;0.10;0.10;;;;;;;;;;5005732;28;20232;-68
2022/04/09 08:57:45;;;;;;;0.10;0.10;;;;;;;;;;5009491;28;20207;-68
2022/04/09 09:00:13;;;;;;;0.10;0.10;;;;;;;;;;5008050;28;20303;-67
2022/04/09 09:02:49;;;;;;;0.10;0.10;;;;;;;;;;5009335;28;20200;-68
2022/04/09 09:05:28;;;;;;;0.10;0.10;;;;;;;;;;5005155;28;20239;-68
2022/04/09 09:07:56;;;;;;;0.10;0.10;;;;;;;;;;5009033;28;20196;-67
2022/04/09 09:10:24;;;;;;;0.10;0.10;;;;;;;;;;5009593;28;20207;-69
2022/04/09 09:12:58;;;;;;;0.10;0.10;;;;;;;;;;5006523;28;20205;-67
2022/04/09 09:15:25;;;;;;;0.10;0.10;;;;;;;;;;5010639;28;20241;-69
2022/04/09 09:17:56;;;;;;;0.10;0.10;;;;;;;;;;5005852;28;20287;-68
2022/04/09 09:20:24;;;;;;;0.10;0.10;;;;;;;;;;5008116;28;20224;-69
2022/04/09 09:22:52;;;;;;;0.10;0.10;;;;;;;;;;5007653;28;20208;-69
2022/04/09 09:25:19;;;;;;;0.10;0.10;;;;;;;;;;5006313;28;20246;-66
2022/04/09 09:27:56;;;;;;;0.10;0.10;;;;;;;;;;5008950;28;20200;-68
2022/04/09 09:30:23;;;;;;;0.10;0.10;;;;;;;;;;5012019;28;20204;-67
2022/04/09 09:33:05;;;;;;;0.10;0.10;;;;;;;;;;5007781;28;20202;-69
2022/04/09 09:35:48;;;;;;;0.10;0.10;;;;;;;;;;5008723;28;20302;-68
2022/04/09 09:38:19;;;;;;;0.10;0.10;;;;;;;;;;5005711;28;20666;-69
2022/04/09 09:40:46;;;;;;;0.10;0.10;;;;;;;;;;5007824;28;20217;-68
2022/04/09 09:43:18;;;;;;;0.10;0.10;;;;;;;;;;5011538;28;20210;-68
2022/04/09 09:45:46;;;;;;;0.10;0.10;;;;;;;;;;5011967;28;20220;-68
2022/04/09 09:48:21;;;;;;;0.10;0.10;;;;;;;;;;5008822;28;20196;-68
2022/04/09 09:50:48;;;;;;;0.00;0.00;;;;;;;;;;5004370;28;20188;-67
2022/04/09 09:53:15;;;;;;;0.10;0.10;;;;;;;;;;5006714;28;20207;-68
2022/04/09 09:55:43;;;;;;;0.10;0.10;;;;;;;;;;5015364;28;20223;-68
2022/04/09 09:58:12;;;;;;;0.10;0.10;;;;;;;;;;5013600;28;20203;-69
2022/04/09 10:00:40;;;;;;;0.10;0.10;;;;;;;;;;5011171;28;20223;-68
2022/04/09 10:03:09;;;;;;;0.10;0.10;;;;;;;;;;5007659;28;20251;-68
2022/04/09 10:05:39;;;;;;;0.10;0.10;;;;;;;;;;5012635;28;20251;-68
2022/04/09 10:08:06;;;;;;;0.00;0.00;;;;;;;;;;5006058;28;20218;-69
2022/04/09 10:10:35;;;;;;;0.10;0.10;;;;;;;;;;5007591;28;20519;-69
2022/04/09 10:13:03;;;;;;;0.10;0.10;;;;;;;;;;5006394;28;20212;-69
2022/04/09 10:15:31;;;;;;;0.10;0.10;;;;;;;;;;5011333;28;20271;-68
2022/04/09 10:18:00;;;;;;;0.10;0.10;;;;;;;;;;5007560;28;20197;-68
2022/04/09 10:20:29;;;;;;;0.10;0.10;;;;;;;;;;5026089;28;20257;-68
2022/04/09 10:22:58;;;;;;;0.10;0.10;;;;;;;;;;5006145;28;20215;-68
2022/04/09 10:25:28;;;;;;;0.10;0.10;;;;;;;;;;5004908;28;20223;-69
2022/04/09 10:28:00;;;;;;;0.20;0.20;;;;;;;;;;5012608;28;20279;-67
2022/04/09 10:30:28;;;;;;;0.10;0.10;;;;;;;;;;5006439;28;20224;-68
2022/04/09 10:32:57;;;;;;;0.10;0.10;;;;;;;;;;5004944;28;20228;-67
2022/04/09 10:35:38;;;;;;;0.10;0.10;;;;;;;;;;5009290;28;20255;-69
2022/04/09 10:38:24;;;;;;;0.10;0.10;;;;;;;;;;5012410;28;20228;-68
2022/04/09 10:41:27;;;;;;;0.10;0.10;;;;;;;;;;5010486;28;20252;-67
2022/04/09 10:43:57;;;;;;;0.10;0.10;;;;;;;;;;5008595;28;20610;-67
2022/04/09 10:46:35;;;;;;;0.10;0.10;;;;;;;;;;5012246;28;20204;-66
2022/04/09 10:49:19;;;;;;;0.10;0.10;;;;;;;;;;5002114;28;20204;-67
2022/04/09 10:52:05;;;;;;;0.10;0.10;;;;;;;;;;5001346;28;20197;-68
2022/04/09 10:54:33;;;;;;;0.10;0.10;;;;;;;;;;5008991;28;20335;-67
2022/04/09 10:57:07;;;;;;;0.10;0.10;;;;;;;;;;5011304;28;20213;-69
2022/04/09 10:59:34;;;;;;;0.10;0.10;;;;;;;;;;5010761;28;20207;-67
2022/04/09 11:02:04;;;;;;;0.10;0.10;;;;;;;;;;5006489;28;20216;-68
2022/04/09 11:04:42;;;;;;;0.10;0.10;;;;;;;;;;5007046;28;20232;-67
2022/04/09 11:07:11;;;;;;;0.10;0.10;;;;;;;;;;5008121;28;20200;-67
2022/04/09 11:09:53;;;;;;;0.10;0.10;;;;;;;;;;5005433;28;20212;-67
2022/04/09 11:12:21;;;;;;;0.10;0.10;;;;;;;;;;5012684;28;20566;-68
2022/04/09 11:14:50;;;;;;;0.10;0.10;;;;;;;;;;5017704;28;20235;-68
2022/04/09 11:17:24;;;;;;;0.10;0.10;;;;;;;;;;5011208;28;20258;-68
2022/04/09 11:19:51;;;;;;;0.10;0.10;;;;;;;;;;5009219;28;20210;-68
2022/04/09 11:22:20;;;;;;;0.10;0.10;;;;;;;;;;5015348;28;20229;-66
2022/04/09 11:24:47;;;;;;;0.10;0.10;;;;;;;;;;5009128;28;20287;-67
2022/04/09 11:27:14;;;;;;;0.10;0.10;;;;;;;;;;5015817;28;20220;-68
2022/04/09 11:29:43;;;;;;;0.10;0.10;;;;;;;;;;5014295;28;20205;-67
2022/04/09 11:32:18;;;;;;;0.00;0.00;;;;;;;;;;4996813;28;20277;-68
2022/04/09 11:34:53;;;;;;;0.10;0.10;;;;;;;;;;5006849;28;20307;-68
2022/04/09 11:37:22;;;;;;;0.00;0.00;;;;;;;;;;5005671;28;20204;-68
2022/04/09 11:39:50;;;;;;;0.10;0.10;;;;;;;;;;5000353;28;20193;-69
2022/04/09 11:42:17;;;;;;;0.03;0.03;;;;;;;;;;5007239;28;20229;-69
2022/04/09 11:44:44;;;;;;;0.10;0.10;;;;;;;;;;5014845;28;20303;-68
2022/04/09 11:47:13;;;;;;;0.00;0.00;;;;;;;;;;5008616;28;20205;-67
2022/04/09 11:49:41;;;;;;;0.10;0.10;;;;;;;;;;4998072;28;20201;-68
2022/04/09 11:52:08;;;;;;;0.10;0.10;;;;;;;;;;5005204;28;20275;-69
2022/04/09 11:54:39;;;;;;;0.10;0.10;;;;;;;;;;5005980;28;20315;-69
2022/04/09 11:57:12;;;;;;;0.00;0.00;;;;;;;;;;5002078;28;20244;-67
2022/04/09 11:59:40;;;;;;;0.10;0.10;;;;;;;;;;5002097;28;20259;-68
2022/04/09 12:02:18;;;;;;;0.10;0.10;;;;;;;;;;5006181;28;20319;-68
2022/04/09 12:04:45;;;;;;;0.07;0.07;;;;;;;;;;5011305;28;20705;-68
2022/04/09 12:07:13;;;;;;;0.00;0.00;;;;;;;;;;5001544;28;20201;-68
2022/04/09 12:09:41;;;;;;;0.00;0.00;;;;;;;;;;5010349;28;20236;-68
2022/04/09 12:12:09;;;;;;;0.07;0.07;;;;;;;;;;5009857;28;20243;-69
2022/04/09 12:14:37;;;;;;;0.10;0.10;;;;;;;;;;5011038;28;20250;-69
2022/04/09 12:17:11;;;;;;;0.00;0.00;;;;;;;;;;5020520;28;20244;-68
2022/04/09 12:19:42;;;;;;;0.10;0.10;;;;;;;;;;5004005;28;20196;-68
2022/04/09 12:22:14;;;;;;;0.00;0.00;;;;;;;;;;5013595;28;20231;-67
2022/04/09 12:24:50;;;;;;;0.10;0.10;;;;;;;;;;5005943;28;20315;-69
2022/04/09 12:27:17;;;;;;;0.00;0.00;;;;;;;;;;5008828;28;20216;-68
2022/04/09 12:29:48;;;;;;;0.10;0.10;;;;;;;;;;5013258;28;20711;-68
2022/04/09 12:32:17;;;;;;;0.10;0.10;;;;;;;;;;5007188;28;20215;-68
2022/04/09 12:34:55;;;;;;;0.00;0.00;;;;;;;;;;5008506;28;20224;-68
2022/04/09 12:37:23;;;;;;;0.10;0.10;;;;;;;;;;5006373;28;20200;-69
2022/04/09 12:39:52;;;;;;;0.10;0.10;;;;;;;;;;5008414;28;20680;-68
2022/04/09 12:42:31;;;;;;;0.10;0.10;;;;;;;;;;5006357;28;20231;-68
2022/04/09 12:45:11;;;;;;;0.00;0.00;;;;;;;;;;5007528;28;20216;-68
2022/04/09 12:47:39;;;;;;;0.10;0.10;;;;;;;;;;5009583;28;20200;-67
2022/04/09 12:50:06;;;;;;;0.10;0.10;;;;;;;;;;5005366;28;20232;-68
2022/04/09 12:52:34;;;;;;;0.10;0.10;;;;;;;;;;5011095;28;20210;-69
2022/04/09 12:55:02;;;;;;;0.10;0.10;;;13.20;99.90;;;;;;5004227;28;20275;-68
2022/04/09 12:57:29;;;;;;;0.10;0.10;;;;;;;;;;5007841;28;20193;-67
2022/04/09 12:59:57;;;;;;;0.10;0.10;;;;;;;;;;5005336;28;20208;-68
2022/04/09 13:02:25;;;;;;;0.10;0.10;;;;;;;;;;5010654;28;20220;-67
2022/04/09 13:04:52;;;;;;;0.10;0.10;;;9.00;99.90;;;;;;5001471;28;20216;-69
2022/04/09 13:07:20;;;;;;;0.00;0.00;;;;;;;;;;5003430;28;20216;-68
2022/04/09 13:09:47;;;;;;;0.10;0.10;;;;;;;;;;5003949;28;20201;-70
2022/04/09 13:12:16;;;;;;;0.10;0.10;;;;;;;;;;5006537;28;20201;-70
2022/04/09 13:14:43;;;;;;;0.10;0.10;;;;;;;;;;5009401;28;20640;-70
2022/04/09 13:17:11;;;;;;;0.10;0.10;;;;;;;;;;4997384;28;20686;-69
2022/04/09 13:19:38;;;;;;;0.10;0.10;;;;;;;;;;5009654;28;20642;-68
2022/04/09 13:22:05;;;;;;;0.10;0.10;;;;;;;;;;5002736;28;20662;-70
2022/04/09 13:24:33;;;;;;;0.10;0.10;;;;;;;;;;5004632;28;20785;-69
2022/04/09 13:27:01;;;;;;;0.10;0.10;;;;;;;;;;5006203;28;20655;-69
2022/04/09 13:29:30;;;;;;;0.10;0.10;;;;;;;;;;5007366;28;20673;-70
2022/04/09 13:31:58;;;;;;;0.10;0.10;;;;;;;;;;5002029;28;21186;-69
2022/04/09 13:34:26;;;;;;;0.10;0.10;;;;;;;;;;4999846;28;20656;-68
2022/04/09 13:36:54;;;;;;;0.10;0.10;;;;;;;;;;5000970;28;20635;-68
2022/04/09 13:39:21;;;;;;;0.10;0.10;;;;;;;;;;5005968;28;20718;-69
2022/04/09 13:41:48;;;;;;;0.10;0.10;;;;;;;;;;5009344;28;20651;-68
2022/04/09 13:44:15;;;;;;;0.10;0.10;;;;;;;;;;5012888;28;20678;-68
2022/04/09 13:46:45;;;;;;;0.10;0.10;;;;;;;;;;5010272;28;20614;-67
2022/04/09 13:49:12;;;;;;;0.10;0.10;;;;;;;;;;5012000;28;20610;-68
2022/04/09 13:51:40;;;;;;;0.10;0.10;;;;;;;;;;5008899;28;20718;-68
2022/04/09 13:54:07;;;;;;;0.10;0.10;;;;;;;;;;5005160;28;20691;-68
2022/04/09 13:56:34;;;;;;;0.10;0.10;;;;;;;;;;5004639;28;20618;-67
2022/04/09 13:59:02;;;;;;;0.10;0.10;;;;;;;;;;5005931;28;20618;-68
2022/04/09 14:01:30;;;;;;;0.00;0.00;;;;;;;;;;5013306;28;20651;-68
2022/04/09 14:03:59;;;;;;;0.00;0.00;;;;;;;;;;5005590;28;20647;-68
2022/04/09 14:06:26;;;;;;;0.10;0.10;;;;;;;;;;5002529;28;20619;-70
2022/04/09 14:08:54;;;;;;;0.10;0.10;;;;;;;;;;5004936;28;20638;-71
2022/04/09 14:11:22;;;;;;;0.10;0.10;;;;;;;;;;5003187;28;20717;-71
2022/04/09 14:13:49;;;;;;;0.10;0.10;;;;;;;;;;4998730;28;20624;-71
2022/04/09 14:16:16;;;;;;;0.10;0.10;;;;;;;;;;5003611;28;20630;-71